sensor_id;sensor_type;location;lat;lon;timestamp;temperature;humidity
23411;DHT22;11878;51.774;7.220;2024-03-02T00:02:25;6.90;99.90
23411;DHT22;11878;51.774;7.220;2024-03-02T00:05:27;7.00;99.90
23411;DHT22;11878;51.774;7.220;2024-03-02T00:08:29;7.00;99.90
23411;DHT22;11878;51.774;7.220;2024-03-02T00:11:35;6.90;99.90
23411;DHT22;11878;51.774;7.220;2024-03-02T00:14:37;6.90;99.90
23411;DHT22;11878;51.774;7.220;2024-03-02T00:17:39;6.90;99.90
23411;DHT22;11878;51.774;7.220;2024-03-02T00:20:41;6.90;99.90
23411;DHT22;11878;51.774;7.220;2024-03-02T00:23:43;6.80;99.90
23411;DHT22;11878;51.774;7.220;2024-03-02T00:26:45;6.80;99.90
23411;DHT22;11878;51.774;7.220;2024-03-02T00:29:47;6.70;99.90
23411;DHT22;11878;51.774;7.220;2024-03-02T00:32:49;6.70;99.90
23411;DHT22;11878;51.774;7.220;2024-03-02T00:35:54;6.90;99.90
23411;DHT22;11878;51.774;7.220;2024-03-02T00:38:56;6.90;99.90
23411;DHT22;11878;51.774;7.220;2024-03-02T00:41:58;6.80;99.90
23411;DHT22;11878;51.774;7.220;2024-03-02T00:45:00;6.80;99.90
23411;DHT22;11878;51.774;7.220;2024-03-02T00:48:02;6.60;99.90
23411;DHT22;11878;51.774;7.220;2024-03-02T00:51:06;6.60;99.90
23411;DHT22;11878;51.774;7.220;2024-03-02T00:54:09;6.60;99.90
23411;DHT22;11878;51.774;7.220;2024-03-02T00:57:12;6.70;99.90
23411;DHT22;11878;51.774;7.220;2024-03-02T01:00:14;6.60;99.90
23411;DHT22;11878;51.774;7.220;2024-03-02T01:03:17;6.50;99.90
23411;DHT22;11878;51.774;7.220;2024-03-02T01:06:20;6.70;99.90
23411;DHT22;11878;51.774;7.220;2024-03-02T01:09:24;6.80;99.90
23411;DHT22;11878;51.774;7.220;2024-03-02T01:12:25;6.90;99.90
23411;DHT22;11878;51.774;7.220;2024-03-02T01:15:27;7.00;99.90
23411;DHT22;11878;51.774;7.220;2024-03-02T01:18:29;7.00;99.90
23411;DHT22;11878;51.774;7.220;2024-03-02T01:21:32;7.10;99.90
23411;DHT22;11878;51.774;7.220;2024-03-02T01:24:34;7.20;99.90
23411;DHT22;11878;51.774;7.220;2024-03-02T01:27:35;7.20;99.90
23411;DHT22;11878;51.774;7.220;2024-03-02T01:30:37;7.30;99.90
23411;DHT22;11878;51.774;7.220;2024-03-02T01:33:39;7.30;99.90
23411;DHT22;11878;51.774;7.220;2024-03-02T01:36:41;7.30;99.90
23411;DHT22;11878;51.774;7.220;2024-03-02T01:39:43;7.40;99.90
23411;DHT22;11878;51.774;7.220;2024-03-02T01:42:44;7.40;99.90
23411;DHT22;11878;51.774;7.220;2024-03-02T01:45:46;7.30;99.90
23411;DHT22;11878;51.774;7.220;2024-03-02T01:48:48;7.30;99.90
23411;DHT22;11878;51.774;7.220;2024-03-02T01:51:50;7.40;99.90
23411;DHT22;11878;51.774;7.220;2024-03-02T01:54:52;8.80;99.90
23411;DHT22;11878;51.774;7.220;2024-03-02T01:57:54;7.30;99.90
23411;DHT22;11878;51.774;7.220;2024-03-02T02:00:56;7.40;99.90
23411;DHT22;11878;51.774;7.220;2024-03-02T02:03:58;7.40;99.90
23411;DHT22;11878;51.774;7.220;2024-03-02T02:07:00;7.40;99.90
23411;DHT22;11878;51.774;7.220;2024-03-02T02:10:02;7.50;99.90
23411;DHT22;11878;51.774;7.220;2024-03-02T02:13:04;7.60;99.90
23411;DHT22;11878;51.774;7.220;2024-03-02T02:16:07;7.50;99.90
23411;DHT22;11878;51.774;7.220;2024-03-02T02:19:09;7.60;99.90
23411;DHT22;11878;51.774;7.220;2024-03-02T02:22:11;7.70;99.90
23411;DHT22;11878;51.774;7.220;2024-03-02T02:25:13;7.70;99.90
23411;DHT22;11878;51.774;7.220;2024-03-02T02:28:14;7.80;99.90
23411;DHT22;11878;51.774;7.220;2024-03-02T02:31:16;7.80;99.90
23411;DHT22;11878;51.774;7.220;2024-03-02T02:34:18;7.90;99.90
23411;DHT22;11878;51.774;7.220;2024-03-02T02:37:20;7.70;99.90
23411;DHT22;11878;51.774;7.220;2024-03-02T02:40:22;7.90;99.90
23411;DHT22;11878;51.774;7.220;2024-03-02T02:43:24;7.80;99.90
23411;DHT22;11878;51.774;7.220;2024-03-02T02:46:26;7.90;99.90
23411;DHT22;11878;51.774;7.220;2024-03-02T02:49:27;8.00;99.90
23411;DHT22;11878;51.774;7.220;2024-03-02T02:52:36;8.00;99.90
23411;DHT22;11878;51.774;7.220;2024-03-02T02:55:40;7.80;99.90
23411;DHT22;11878;51.774;7.220;2024-03-02T02:58:42;7.80;99.90
23411;DHT22;11878;51.774;7.220;2024-03-02T03:01:44;7.70;99.90
23411;DHT22;11878;51.774;7.220;2024-03-02T03:04:46;7.80;99.90
23411;DHT22;11878;51.774;7.220;2024-03-02T03:07:48;7.60;99.90
23411;DHT22;11878;51.774;7.220;2024-03-02T03:10:52;7.70;99.90
23411;DHT22;11878;51.774;7.220;2024-03-02T03:13:54;7.80;99.90
23411;DHT22;11878;51.774;7.220;2024-03-02T03:16:56;7.80;99.90
23411;DHT22;11878;51.774;7.220;2024-03-02T03:19:58;7.80;99.90
23411;DHT22;11878;51.774;7.220;2024-03-02T03:23:00;7.70;99.90
23411;DHT22;11878;51.774;7.220;2024-03-02T03:26:02;7.80;99.90
23411;DHT22;11878;51.774;7.220;2024-03-02T03:29:04;7.70;99.90
23411;DHT22;11878;51.774;7.220;2024-03-02T03:32:06;7.70;99.90
23411;DHT22;11878;51.774;7.220;2024-03-02T03:35:08;7.50;99.90
23411;DHT22;11878;51.774;7.220;2024-03-02T03:38:10;7.40;99.90
23411;DHT22;11878;51.774;7.220;2024-03-02T03:41:12;7.60;99.90
23411;DHT22;11878;51.774;7.220;2024-03-02T03:44:14;7.50;99.90
23411;DHT22;11878;51.774;7.220;2024-03-02T03:47:16;7.40;99.90
23411;DHT22;11878;51.774;7.220;2024-03-02T03:50:18;7.30;99.90
23411;DHT22;11878;51.774;7.220;2024-03-02T03:53:21;7.20;99.90
23411;DHT22;11878;51.774;7.220;2024-03-02T03:56:23;7.20;99.90
23411;DHT22;11878;51.774;7.220;2024-03-02T03:59:25;7.00;99.90
23411;DHT22;11878;51.774;7.220;2024-03-02T04:02:27;6.90;99.90
23411;DHT22;11878;51.774;7.220;2024-03-02T04:05:29;7.00;99.90
23411;DHT22;11878;51.774;7.220;2024-03-02T04:08:31;7.00;99.90
23411;DHT22;11878;51.774;7.220;2024-03-02T04:11:32;6.80;99.90
23411;DHT22;11878;51.774;7.220;2024-03-02T04:14:34;6.90;99.90
23411;DHT22;11878;51.774;7.220;2024-03-02T04:17:36;6.80;99.90
23411;DHT22;11878;51.774;7.220;2024-03-02T04:20:39;6.70;99.90
23411;DHT22;11878;51.774;7.220;2024-03-02T04:23:41;6.60;99.90
23411;DHT22;11878;51.774;7.220;2024-03-02T04:26:42;6.50;99.90
23411;DHT22;11878;51.774;7.220;2024-03-02T04:29:44;6.50;99.90
23411;DHT22;11878;51.774;7.220;2024-03-02T04:32:46;6.40;99.90
23411;DHT22;11878;51.774;7.220;2024-03-02T04:35:48;3.80;99.90
23411;DHT22;11878;51.774;7.220;2024-03-02T04:38:50;6.30;99.90
23411;DHT22;11878;51.774;7.220;2024-03-02T04:41:52;6.20;99.90
23411;DHT22;11878;51.774;7.220;2024-03-02T04:44:54;6.20;99.90
23411;DHT22;11878;51.774;7.220;2024-03-02T04:47:55;6.10;99.90
23411;DHT22;11878;51.774;7.220;2024-03-02T04:50:57;6.00;99.90
23411;DHT22;11878;51.774;7.220;2024-03-02T04:53:59;6.10;99.90
23411;DHT22;11878;51.774;7.220;2024-03-02T04:57:01;6.10;99.90
23411;DHT22;11878;51.774;7.220;2024-03-02T05:00:03;6.00;99.90
23411;DHT22;11878;51.774;7.220;2024-03-02T05:03:08;5.90;99.90
23411;DHT22;11878;51.774;7.220;2024-03-02T05:06:10;5.90;99.90
23411;DHT22;11878;51.774;7.220;2024-03-02T05:09:12;5.90;99.90
23411;DHT22;11878;51.774;7.220;2024-03-02T05:12:13;5.80;99.90
23411;DHT22;11878;51.774;7.220;2024-03-02T05:15:42;5.70;99.90
23411;DHT22;11878;51.774;7.220;2024-03-02T05:18:45;5.70;99.90
23411;DHT22;11878;51.774;7.220;2024-03-02T05:21:46;5.70;99.90
23411;DHT22;11878;51.774;7.220;2024-03-02T05:24:48;5.80;99.90
23411;DHT22;11878;51.774;7.220;2024-03-02T05:27:50;5.60;99.90
23411;DHT22;11878;51.774;7.220;2024-03-02T05:30:53;5.50;99.90
23411;DHT22;11878;51.774;7.220;2024-03-02T05:33:54;5.50;99.90
23411;DHT22;11878;51.774;7.220;2024-03-02T05:36:59;3.60;99.90
23411;DHT22;11878;51.774;7.220;2024-03-02T05:40:00;5.40;99.90
23411;DHT22;11878;51.774;7.220;2024-03-02T05:43:03;5.40;99.90
23411;DHT22;11878;51.774;7.220;2024-03-02T05:46:04;5.40;99.90
23411;DHT22;11878;51.774;7.220;2024-03-02T05:49:06;5.40;99.90
23411;DHT22;11878;51.774;7.220;2024-03-02T05:52:09;7.20;99.90
23411;DHT22;11878;51.774;7.220;2024-03-02T05:55:12;5.30;99.90
23411;DHT22;11878;51.774;7.220;2024-03-02T05:58:14;5.20;99.90
23411;DHT22;11878;51.774;7.220;2024-03-02T06:01:29;5.10;99.90
23411;DHT22;11878;51.774;7.220;2024-03-02T06:04:32;5.10;99.90
23411;DHT22;11878;51.774;7.220;2024-03-02T06:07:34;7.60;99.90
23411;DHT22;11878;51.774;7.220;2024-03-02T06:10:35;5.00;99.90
23411;DHT22;11878;51.774;7.220;2024-03-02T06:13:41;4.90;99.90
23411;DHT22;11878;51.774;7.220;2024-03-02T06:17:01;4.90;99.90
23411;DHT22;11878;51.774;7.220;2024-03-02T06:20:23;7.50;99.90
23411;DHT22;11878;51.774;7.220;2024-03-02T06:23:45;3.40;99.90
23411;DHT22;11878;51.774;7.220;2024-03-02T06:26:53;4.80;99.90
23411;DHT22;11878;51.774;7.220;2024-03-02T06:30:26;4.90;99.90
23411;DHT22;11878;51.774;7.220;2024-03-02T06:34:01;4.90;99.90
23411;DHT22;11878;51.774;7.220;2024-03-02T06:40:45;2.80;99.90
23411;DHT22;11878;51.774;7.220;2024-03-02T06:44:06;4.30;99.90
23411;DHT22;11878;51.774;7.220;2024-03-02T06:47:18;5.60;99.90
23411;DHT22;11878;51.774;7.220;2024-03-02T06:50:42;3.90;99.90
23411;DHT22;11878;51.774;7.220;2024-03-02T06:54:03;5.10;99.90
23411;DHT22;11878;51.774;7.220;2024-03-02T06:57:20;5.00;99.90
23411;DHT22;11878;51.774;7.220;2024-03-02T07:00:51;5.20;99.90
23411;DHT22;11878;51.774;7.220;2024-03-02T07:03:54;5.30;99.90
23411;DHT22;11878;51.774;7.220;2024-03-02T07:06:57;5.30;99.90
23411;DHT22;11878;51.774;7.220;2024-03-02T07:14:16;6.30;99.90
23411;DHT22;11878;51.774;7.220;2024-03-02T07:17:41;5.80;99.90
23411;DHT22;11878;51.774;7.220;2024-03-02T07:21:19;5.90;99.90
23411;DHT22;11878;51.774;7.220;2024-03-02T07:24:29;6.60;99.90
23411;DHT22;11878;51.774;7.220;2024-03-02T07:27:43;6.00;99.90
23411;DHT22;11878;51.774;7.220;2024-03-02T07:31:09;6.30;99.90
23411;DHT22;11878;51.774;7.220;2024-03-02T07:34:23;6.60;99.90
23411;DHT22;11878;51.774;7.220;2024-03-02T07:37:37;7.00;99.90
23411;DHT22;11878;51.774;7.220;2024-03-02T07:40:42;10.00;99.90
23411;DHT22;11878;51.774;7.220;2024-03-02T07:43:44;7.30;99.90
23411;DHT22;11878;51.774;7.220;2024-03-02T07:47:07;7.50;99.90
23411;DHT22;11878;51.774;7.220;2024-03-02T07:50:09;7.50;99.90
23411;DHT22;11878;51.774;7.220;2024-03-02T07:53:11;7.60;99.90
23411;DHT22;11878;51.774;7.220;2024-03-02T07:56:13;7.60;99.90
23411;DHT22;11878;51.774;7.220;2024-03-02T07:59:14;7.80;99.90
23411;DHT22;11878;51.774;7.220;2024-03-02T08:02:16;7.90;99.90
23411;DHT22;11878;51.774;7.220;2024-03-02T08:05:19;8.00;99.90
23411;DHT22;11878;51.774;7.220;2024-03-02T08:08:21;8.20;99.90
23411;DHT22;11878;51.774;7.220;2024-03-02T08:11:23;8.40;99.90
23411;DHT22;11878;51.774;7.220;2024-03-02T08:14:34;8.50;99.90
23411;DHT22;11878;51.774;7.220;2024-03-02T08:17:36;8.60;99.90
23411;DHT22;11878;51.774;7.220;2024-03-02T08:20:40;8.60;99.90
23411;DHT22;11878;51.774;7.220;2024-03-02T08:23:43;8.70;99.90
23411;DHT22;11878;51.774;7.220;2024-03-02T08:26:45;8.80;99.90
23411;DHT22;11878;51.774;7.220;2024-03-02T08:29:47;8.90;99.90
23411;DHT22;11878;51.774;7.220;2024-03-02T08:32:49;9.00;99.90
23411;DHT22;11878;51.774;7.220;2024-03-02T08:35:51;9.00;99.90
23411;DHT22;11878;51.774;7.220;2024-03-02T08:38:53;9.10;99.90
23411;DHT22;11878;51.774;7.220;2024-03-02T08:41:55;9.30;99.90
23411;DHT22;11878;51.774;7.220;2024-03-02T08:45:00;9.30;99.90
23411;DHT22;11878;51.774;7.220;2024-03-02T08:48:02;9.40;99.90
23411;DHT22;11878;51.774;7.220;2024-03-02T08:51:04;9.50;99.90
23411;DHT22;11878;51.774;7.220;2024-03-02T08:54:12;9.70;99.90
23411;DHT22;11878;51.774;7.220;2024-03-02T08:57:17;9.70;99.90
23411;DHT22;11878;51.774;7.220;2024-03-02T09:00:19;9.90;99.90
23411;DHT22;11878;51.774;7.220;2024-03-02T09:03:21;9.90;99.90
23411;DHT22;11878;51.774;7.220;2024-03-02T09:06:23;10.00;99.90
23411;DHT22;11878;51.774;7.220;2024-03-02T09:09:25;10.10;99.90
23411;DHT22;11878;51.774;7.220;2024-03-02T09:12:26;10.20;99.90
23411;DHT22;11878;51.774;7.220;2024-03-02T09:15:28;10.30;99.90
23411;DHT22;11878;51.774;7.220;2024-03-02T09:18:31;10.50;99.90
23411;DHT22;11878;51.774;7.220;2024-03-02T09:21:33;10.70;99.90
23411;DHT22;11878;51.774;7.220;2024-03-02T09:24:35;10.70;99.90
23411;DHT22;11878;51.774;7.220;2024-03-02T09:27:38;10.80;99.90
23411;DHT22;11878;51.774;7.220;2024-03-02T09:30:40;10.90;99.90
23411;DHT22;11878;51.774;7.220;2024-03-02T09:33:42;11.10;99.90
23411;DHT22;11878;51.774;7.220;2024-03-02T09:36:44;11.10;99.90
23411;DHT22;11878;51.774;7.220;2024-03-02T09:39:45;11.40;99.90
23411;DHT22;11878;51.774;7.220;2024-03-02T09:42:47;11.30;99.90
23411;DHT22;11878;51.774;7.220;2024-03-02T09:45:54;11.30;99.90
23411;DHT22;11878;51.774;7.220;2024-03-02T09:48:56;11.40;99.90
23411;DHT22;11878;51.774;7.220;2024-03-02T09:51:58;11.30;99.90
23411;DHT22;11878;51.774;7.220;2024-03-02T09:55:00;11.20;99.90
23411;DHT22;11878;51.774;7.220;2024-03-02T09:58:03;11.20;99.90
23411;DHT22;11878;51.774;7.220;2024-03-02T10:01:08;11.30;99.90
23411;DHT22;11878;51.774;7.220;2024-03-02T10:04:12;11.20;99.90
23411;DHT22;11878;51.774;7.220;2024-03-02T10:07:15;11.70;98.50
23411;DHT22;11878;51.774;7.220;2024-03-02T10:10:17;12.00;99.90
23411;DHT22;11878;51.774;7.220;2024-03-02T10:13:19;12.20;98.50
23411;DHT22;11878;51.774;7.220;2024-03-02T10:16:26;12.40;96.20
23411;DHT22;11878;51.774;7.220;2024-03-02T10:19:28;12.50;96.20
23411;DHT22;11878;51.774;7.220;2024-03-02T10:22:34;13.00;95.10
23411;DHT22;11878;51.774;7.220;2024-03-02T10:25:36;13.20;93.40
23411;DHT22;11878;51.774;7.220;2024-03-02T10:28:51;12.70;93.10
23411;DHT22;11878;51.774;7.220;2024-03-02T10:32:02;13.20;91.50
23411;DHT22;11878;51.774;7.220;2024-03-02T10:35:06;13.60;91.10
23411;DHT22;11878;51.774;7.220;2024-03-02T10:38:11;14.10;90.00
23411;DHT22;11878;51.774;7.220;2024-03-02T10:41:18;14.30;91.10
23411;DHT22;11878;51.774;7.220;2024-03-02T10:44:20;14.50;88.60
23411;DHT22;11878;51.774;7.220;2024-03-02T10:47:23;14.50;85.00
23411;DHT22;11878;51.774;7.220;2024-03-02T10:50:27;13.80;86.20
23411;DHT22;11878;51.774;7.220;2024-03-02T10:53:29;13.80;83.90
23411;DHT22;11878;51.774;7.220;2024-03-02T10:59:46;13.80;82.90
23411;DHT22;11878;51.774;7.220;2024-03-02T11:02:56;14.20;81.30
23411;DHT22;11878;51.774;7.220;2024-03-02T11:05:59;14.40;81.10
23411;DHT22;11878;51.774;7.220;2024-03-02T11:09:05;14.40;78.90
23411;DHT22;11878;51.774;7.220;2024-03-02T11:12:19;14.40;77.60
23411;DHT22;11878;51.774;7.220;2024-03-02T11:15:24;14.50;79.90
23411;DHT22;11878;51.774;7.220;2024-03-02T11:18:27;14.40;79.40
23411;DHT22;11878;51.774;7.220;2024-03-02T11:21:29;14.80;80.10
23411;DHT22;11878;51.774;7.220;2024-03-02T11:24:34;14.50;78.10
23411;DHT22;11878;51.774;7.220;2024-03-02T11:33:49;14.50;78.10
23411;DHT22;11878;51.774;7.220;2024-03-02T11:36:51;14.50;77.00
23411;DHT22;11878;51.774;7.220;2024-03-02T11:39:53;14.70;85.30
23411;DHT22;11878;51.774;7.220;2024-03-02T11:42:57;14.90;80.00
23411;DHT22;11878;51.774;7.220;2024-03-02T11:46:03;15.10;78.60
23411;DHT22;11878;51.774;7.220;2024-03-02T11:49:06;14.80;75.80
23411;DHT22;11878;51.774;7.220;2024-03-02T11:52:09;15.20;78.50
23411;DHT22;11878;51.774;7.220;2024-03-02T11:55:13;15.10;74.00
23411;DHT22;11878;51.774;7.220;2024-03-02T11:58:16;15.10;75.10
23411;DHT22;11878;51.774;7.220;2024-03-02T12:01:29;15.10;72.10
23411;DHT22;11878;51.774;7.220;2024-03-02T12:04:31;15.30;75.00
23411;DHT22;11878;51.774;7.220;2024-03-02T12:07:33;15.30;76.20
23411;DHT22;11878;51.774;7.220;2024-03-02T12:10:35;15.70;74.40
23411;DHT22;11878;51.774;7.220;2024-03-02T12:13:38;16.10;73.20
23411;DHT22;11878;51.774;7.220;2024-03-02T12:16:44;16.50;71.00
23411;DHT22;11878;51.774;7.220;2024-03-02T12:19:45;17.00;71.10
23411;DHT22;11878;51.774;7.220;2024-03-02T12:22:47;16.00;70.10
23411;DHT22;11878;51.774;7.220;2024-03-02T12:25:49;16.10;67.80
23411;DHT22;11878;51.774;7.220;2024-03-02T12:28:52;16.30;68.20
23411;DHT22;11878;51.774;7.220;2024-03-02T12:31:54;16.50;74.20
23411;DHT22;11878;51.774;7.220;2024-03-02T12:34:56;16.40;66.40
23411;DHT22;11878;51.774;7.220;2024-03-02T12:37:58;16.70;64.00
23411;DHT22;11878;51.774;7.220;2024-03-02T12:41:00;17.30;64.60
23411;DHT22;11878;51.774;7.220;2024-03-02T12:44:02;17.60;62.30
23411;DHT22;11878;51.774;7.220;2024-03-02T12:47:05;17.80;61.30
23411;DHT22;11878;51.774;7.220;2024-03-02T12:50:21;17.10;61.20
23411;DHT22;11878;51.774;7.220;2024-03-02T12:53:56;17.20;63.80
23411;DHT22;11878;51.774;7.220;2024-03-02T12:57:06;19.40;58.80
23411;DHT22;11878;51.774;7.220;2024-03-02T13:00:18;16.90;64.40
23411;DHT22;11878;51.774;7.220;2024-03-02T13:03:29;18.00;61.90
23411;DHT22;11878;51.774;7.220;2024-03-02T13:06:54;16.80;60.60
23411;DHT22;11878;51.774;7.220;2024-03-02T13:10:12;16.60;60.10
23411;DHT22;11878;51.774;7.220;2024-03-02T13:13:21;16.70;59.20
23411;DHT22;11878;51.774;7.220;2024-03-02T13:16:28;16.70;62.60
23411;DHT22;11878;51.774;7.220;2024-03-02T13:20:16;17.40;58.40
23411;DHT22;11878;51.774;7.220;2024-03-02T13:23:32;16.60;60.00
23411;DHT22;11878;51.774;7.220;2024-03-02T13:26:57;16.60;66.90
23411;DHT22;11878;51.774;7.220;2024-03-02T13:30:20;17.10;65.20
23411;DHT22;11878;51.774;7.220;2024-03-02T13:33:26;16.50;67.60
23411;DHT22;11878;51.774;7.220;2024-03-02T13:36:37;17.10;66.90
23411;DHT22;11878;51.774;7.220;2024-03-02T13:40:02;20.00;68.60
23411;DHT22;11878;51.774;7.220;2024-03-02T13:43:05;18.50;63.00
23411;DHT22;11878;51.774;7.220;2024-03-02T13:46:08;16.90;66.50
23411;DHT22;11878;51.774;7.220;2024-03-02T13:49:11;17.80;63.00
23411;DHT22;11878;51.774;7.220;2024-03-02T13:52:13;18.50;64.10
23411;DHT22;11878;51.774;7.220;2024-03-02T13:55:15;18.60;59.80
23411;DHT22;11878;51.774;7.220;2024-03-02T13:58:17;18.20;58.20
23411;DHT22;11878;51.774;7.220;2024-03-02T14:01:20;17.20;62.90
23411;DHT22;11878;51.774;7.220;2024-03-02T14:04:22;18.10;62.50
23411;DHT22;11878;51.774;7.220;2024-03-02T14:07:24;17.20;61.30
23411;DHT22;11878;51.774;7.220;2024-03-02T14:10:27;16.90;62.60
23411;DHT22;11878;51.774;7.220;2024-03-02T14:13:29;16.00;66.90
23411;DHT22;11878;51.774;7.220;2024-03-02T14:16:31;15.50;73.80
23411;DHT22;11878;51.774;7.220;2024-03-02T14:19:33;16.30;72.10
23411;DHT22;11878;51.774;7.220;2024-03-02T14:22:34;17.40;63.30
23411;DHT22;11878;51.774;7.220;2024-03-02T14:25:38;17.50;63.10
23411;DHT22;11878;51.774;7.220;2024-03-02T14:28:40;16.80;65.50
23411;DHT22;11878;51.774;7.220;2024-03-02T14:31:52;17.10;63.70
23411;DHT22;11878;51.774;7.220;2024-03-02T14:34:54;17.20;64.30
23411;DHT22;11878;51.774;7.220;2024-03-02T14:37:57;18.20;59.10
23411;DHT22;11878;51.774;7.220;2024-03-02T14:41:01;18.00;58.90
23411;DHT22;11878;51.774;7.220;2024-03-02T14:44:05;17.10;61.70
23411;DHT22;11878;51.774;7.220;2024-03-02T14:47:06;16.60;70.60
23411;DHT22;11878;51.774;7.220;2024-03-02T14:50:09;15.40;68.50
23411;DHT22;11878;51.774;7.220;2024-03-02T14:53:11;14.90;73.70
23411;DHT22;11878;51.774;7.220;2024-03-02T14:56:14;15.20;74.60
23411;DHT22;11878;51.774;7.220;2024-03-02T14:59:15;15.00;73.80
23411;DHT22;11878;51.774;7.220;2024-03-02T15:02:17;14.90;73.70
23411;DHT22;11878;51.774;7.220;2024-03-02T15:05:19;14.80;74.10
23411;DHT22;11878;51.774;7.220;2024-03-02T15:08:21;15.10;73.70
23411;DHT22;11878;51.774;7.220;2024-03-02T15:11:23;15.10;76.10
23411;DHT22;11878;51.774;7.220;2024-03-02T15:14:27;15.10;76.90
23411;DHT22;11878;51.774;7.220;2024-03-02T15:17:28;14.90;76.90
23411;DHT22;11878;51.774;7.220;2024-03-02T15:20:30;15.00;78.60
23411;DHT22;11878;51.774;7.220;2024-03-02T15:23:32;15.80;75.40
23411;DHT22;11878;51.774;7.220;2024-03-02T15:26:34;15.40;74.30
23411;DHT22;11878;51.774;7.220;2024-03-02T15:29:36;14.80;76.50
23411;DHT22;11878;51.774;7.220;2024-03-02T15:32:38;14.50;78.70
23411;DHT22;11878;51.774;7.220;2024-03-02T15:35:41;14.30;80.20
23411;DHT22;11878;51.774;7.220;2024-03-02T15:38:43;14.20;81.10
23411;DHT22;11878;51.774;7.220;2024-03-02T15:41:45;14.20;82.20
23411;DHT22;11878;51.774;7.220;2024-03-02T15:44:47;14.10;84.10
23411;DHT22;11878;51.774;7.220;2024-03-02T15:47:49;14.00;80.80
23411;DHT22;11878;51.774;7.220;2024-03-02T15:50:52;14.10;82.70
23411;DHT22;11878;51.774;7.220;2024-03-02T15:53:54;13.90;84.80
23411;DHT22;11878;51.774;7.220;2024-03-02T15:56:56;13.80;87.40
23411;DHT22;11878;51.774;7.220;2024-03-02T15:59:58;13.80;84.10
23411;DHT22;11878;51.774;7.220;2024-03-02T16:03:00;13.80;86.70
23411;DHT22;11878;51.774;7.220;2024-03-02T16:06:02;13.60;88.60
23411;DHT22;11878;51.774;7.220;2024-03-02T16:09:04;13.50;87.00
23411;DHT22;11878;51.774;7.220;2024-03-02T16:12:06;13.40;87.00
23411;DHT22;11878;51.774;7.220;2024-03-02T16:15:09;13.70;89.30
23411;DHT22;11878;51.774;7.220;2024-03-02T16:18:10;13.20;89.40
23411;DHT22;11878;51.774;7.220;2024-03-02T16:21:12;13.30;90.30
23411;DHT22;11878;51.774;7.220;2024-03-02T16:24:15;13.20;90.20
23411;DHT22;11878;51.774;7.220;2024-03-02T16:27:17;13.20;90.70
23411;DHT22;11878;51.774;7.220;2024-03-02T16:30:19;13.20;90.70
23411;DHT22;11878;51.774;7.220;2024-03-02T16:33:21;13.10;91.60
23411;DHT22;11878;51.774;7.220;2024-03-02T16:36:23;13.10;92.00
23411;DHT22;11878;51.774;7.220;2024-03-02T16:39:25;13.00;91.80
23411;DHT22;11878;51.774;7.220;2024-03-02T16:42:30;12.90;93.10
23411;DHT22;11878;51.774;7.220;2024-03-02T16:45:32;12.80;93.30
23411;DHT22;11878;51.774;7.220;2024-03-02T16:48:34;12.70;92.90
23411;DHT22;11878;51.774;7.220;2024-03-02T16:51:43;13.70;94.60
23411;DHT22;11878;51.774;7.220;2024-03-02T16:54:50;12.60;93.90
23411;DHT22;11878;51.774;7.220;2024-03-02T16:57:52;12.60;93.40
23411;DHT22;11878;51.774;7.220;2024-03-02T17:00:54;12.60;94.30
23411;DHT22;11878;51.774;7.220;2024-03-02T17:03:56;12.50;94.40
23411;DHT22;11878;51.774;7.220;2024-03-02T17:06:58;12.50;94.30
23411;DHT22;11878;51.774;7.220;2024-03-02T17:10:01;12.40;94.60
23411;DHT22;11878;51.774;7.220;2024-03-02T17:13:03;12.40;94.90
23411;DHT22;11878;51.774;7.220;2024-03-02T17:16:05;12.30;94.50
23411;DHT22;11878;51.774;7.220;2024-03-02T17:19:07;12.40;94.30
23411;DHT22;11878;51.774;7.220;2024-03-02T17:22:09;12.30;94.60
23411;DHT22;11878;51.774;7.220;2024-03-02T17:25:11;12.40;95.00
23411;DHT22;11878;51.774;7.220;2024-03-02T17:28:24;12.30;94.50
23411;DHT22;11878;51.774;7.220;2024-03-02T17:31:27;12.10;95.10
23411;DHT22;11878;51.774;7.220;2024-03-02T17:34:31;12.10;94.90
23411;DHT22;11878;51.774;7.220;2024-03-02T17:37:33;12.10;95.00
23411;DHT22;11878;51.774;7.220;2024-03-02T17:40:37;12.10;95.10
23411;DHT22;11878;51.774;7.220;2024-03-02T17:43:39;12.00;94.80
23411;DHT22;11878;51.774;7.220;2024-03-02T17:46:41;12.00;95.10
23411;DHT22;11878;51.774;7.220;2024-03-02T17:49:44;12.00;94.50
23411;DHT22;11878;51.774;7.220;2024-03-02T17:52:46;12.10;95.40
23411;DHT22;11878;51.774;7.220;2024-03-02T17:55:49;12.00;94.70
23411;DHT22;11878;51.774;7.220;2024-03-02T17:58:51;11.90;95.70
23411;DHT22;11878;51.774;7.220;2024-03-02T18:01:53;12.00;95.30
23411;DHT22;11878;51.774;7.220;2024-03-02T18:04:55;11.90;95.70
23411;DHT22;11878;51.774;7.220;2024-03-02T18:07:59;14.70;97.20
23411;DHT22;11878;51.774;7.220;2024-03-02T18:11:01;11.90;96.70
23411;DHT22;11878;51.774;7.220;2024-03-02T18:14:03;11.90;96.20
23411;DHT22;11878;51.774;7.220;2024-03-02T18:17:05;11.80;96.30
23411;DHT22;11878;51.774;7.220;2024-03-02T18:20:07;11.90;96.60
23411;DHT22;11878;51.774;7.220;2024-03-02T18:23:09;11.80;96.80
23411;DHT22;11878;51.774;7.220;2024-03-02T18:26:11;11.80;96.70
23411;DHT22;11878;51.774;7.220;2024-03-02T18:29:13;11.90;97.00
23411;DHT22;11878;51.774;7.220;2024-03-02T18:32:18;11.80;96.80
23411;DHT22;11878;51.774;7.220;2024-03-02T18:35:20;11.80;96.90
23411;DHT22;11878;51.774;7.220;2024-03-02T18:38:21;11.70;97.80
23411;DHT22;11878;51.774;7.220;2024-03-02T18:41:24;11.70;97.30
23411;DHT22;11878;51.774;7.220;2024-03-02T18:44:26;11.90;98.00
23411;DHT22;11878;51.774;7.220;2024-03-02T18:47:28;11.80;97.50
23411;DHT22;11878;51.774;7.220;2024-03-02T18:50:29;11.80;98.10
23411;DHT22;11878;51.774;7.220;2024-03-02T18:53:31;11.70;98.70
23411;DHT22;11878;51.774;7.220;2024-03-02T18:56:33;11.70;98.50
23411;DHT22;11878;51.774;7.220;2024-03-02T18:59:35;11.70;98.30
23411;DHT22;11878;51.774;7.220;2024-03-02T19:02:37;11.70;98.50
23411;DHT22;11878;51.774;7.220;2024-03-02T19:05:39;11.70;98.60
23411;DHT22;11878;51.774;7.220;2024-03-02T19:08:41;11.70;98.50
23411;DHT22;11878;51.774;7.220;2024-03-02T19:11:43;11.70;98.60
23411;DHT22;11878;51.774;7.220;2024-03-02T19:14:45;11.70;98.40
23411;DHT22;11878;51.774;7.220;2024-03-02T19:17:47;10.50;98.10
23411;DHT22;11878;51.774;7.220;2024-03-02T19:20:49;11.50;98.80
23411;DHT22;11878;51.774;7.220;2024-03-02T19:23:53;11.50;99.20
23411;DHT22;11878;51.774;7.220;2024-03-02T19:26:55;11.50;98.90
23411;DHT22;11878;51.774;7.220;2024-03-02T19:29:57;11.50;99.20
23411;DHT22;11878;51.774;7.220;2024-03-02T19:32:59;11.50;99.20
23411;DHT22;11878;51.774;7.220;2024-03-02T19:36:01;11.50;99.40
23411;DHT22;11878;51.774;7.220;2024-03-02T19:39:04;11.50;99.20
23411;DHT22;11878;51.774;7.220;2024-03-02T19:42:07;11.50;99.40
23411;DHT22;11878;51.774;7.220;2024-03-02T19:45:09;11.50;99.30
23411;DHT22;11878;51.774;7.220;2024-03-02T19:48:11;11.50;99.10
23411;DHT22;11878;51.774;7.220;2024-03-02T19:51:15;11.40;99.20